sensor_id;sensor_type;location;lat;lon;timestamp;temperature;humidity
27164;DHT22;14685;50.618;7.024;2023-12-29T00:00:49;10.80;99.90
27164;DHT22;14685;50.618;7.024;2023-12-29T00:03:16;10.70;99.90
27164;DHT22;14685;50.618;7.024;2023-12-29T00:05:43;10.70;99.90
27164;DHT22;14685;50.618;7.024;2023-12-29T00:08:10;10.70;99.90
27164;DHT22;14685;50.618;7.024;2023-12-29T00:10:37;10.70;99.90
27164;DHT22;14685;50.618;7.024;2023-12-29T00:13:05;10.70;99.90
27164;DHT22;14685;50.618;7.024;2023-12-29T00:15:32;10.70;99.90
27164;DHT22;14685;50.618;7.024;2023-12-29T00:17:59;10.70;99.90
27164;DHT22;14685;50.618;7.024;2023-12-29T00:20:27;10.70;99.90
27164;DHT22;14685;50.618;7.024;2023-12-29T00:23:07;10.70;99.90
27164;DHT22;14685;50.618;7.024;2023-12-29T00:25:37;10.70;99.90
27164;DHT22;14685;50.618;7.024;2023-12-29T00:28:05;10.70;99.90
27164;DHT22;14685;50.618;7.024;2023-12-29T00:30:32;10.70;99.90
27164;DHT22;14685;50.618;7.024;2023-12-29T00:33:19;10.70;99.90
27164;DHT22;14685;50.618;7.024;2023-12-29T00:35:46;10.70;99.90
27164;DHT22;14685;50.618;7.024;2023-12-29T00:38:13;10.60;99.90
27164;DHT22;14685;50.618;7.024;2023-12-29T00:40:40;10.60;99.90
27164;DHT22;14685;50.618;7.024;2023-12-29T00:43:07;10.60;99.90
27164;DHT22;14685;50.618;7.024;2023-12-29T00:45:34;10.60;99.90
27164;DHT22;14685;50.618;7.024;2023-12-29T00:48:03;10.60;99.90
27164;DHT22;14685;50.618;7.024;2023-12-29T00:50:31;10.60;99.90
27164;DHT22;14685;50.618;7.024;2023-12-29T00:52:58;10.60;99.90
27164;DHT22;14685;50.618;7.024;2023-12-29T00:55:25;10.60;99.90
27164;DHT22;14685;50.618;7.024;2023-12-29T00:57:52;10.60;99.90
27164;DHT22;14685;50.618;7.024;2023-12-29T01:00:20;10.60;99.90
27164;DHT22;14685;50.618;7.024;2023-12-29T01:02:47;10.60;99.90
27164;DHT22;14685;50.618;7.024;2023-12-29T01:05:17;10.70;99.90
27164;DHT22;14685;50.618;7.024;2023-12-29T01:07:45;10.60;99.90
27164;DHT22;14685;50.618;7.024;2023-12-29T01:10:12;10.70;99.90
27164;DHT22;14685;50.618;7.024;2023-12-29T01:12:39;10.50;99.90
27164;DHT22;14685;50.618;7.024;2023-12-29T01:15:07;10.70;99.90
27164;DHT22;14685;50.618;7.024;2023-12-29T01:17:34;10.70;99.90
27164;DHT22;14685;50.618;7.024;2023-12-29T01:20:01;10.70;99.90
27164;DHT22;14685;50.618;7.024;2023-12-29T01:22:31;10.70;99.90
27164;DHT22;14685;50.618;7.024;2023-12-29T01:25:01;10.70;99.90
27164;DHT22;14685;50.618;7.024;2023-12-29T01:27:29;10.70;99.90
27164;DHT22;14685;50.618;7.024;2023-12-29T01:29:56;10.70;99.90
27164;DHT22;14685;50.618;7.024;2023-12-29T01:32:23;10.70;99.90
27164;DHT22;14685;50.618;7.024;2023-12-29T01:34:52;10.70;99.90
27164;DHT22;14685;50.618;7.024;2023-12-29T01:37:19;10.70;99.90
27164;DHT22;14685;50.618;7.024;2023-12-29T01:39:46;10.70;99.90
27164;DHT22;14685;50.618;7.024;2023-12-29T01:42:13;10.70;99.90
27164;DHT22;14685;50.618;7.024;2023-12-29T01:44:40;10.70;99.90
27164;DHT22;14685;50.618;7.024;2023-12-29T01:47:16;10.70;99.90
27164;DHT22;14685;50.618;7.024;2023-12-29T01:49:45;10.80;99.90
27164;DHT22;14685;50.618;7.024;2023-12-29T01:52:13;10.70;99.90
27164;DHT22;14685;50.618;7.024;2023-12-29T01:54:41;10.70;99.90
27164;DHT22;14685;50.618;7.024;2023-12-29T01:57:09;10.70;99.90
27164;DHT22;14685;50.618;7.024;2023-12-29T01:59:37;10.70;99.90
27164;DHT22;14685;50.618;7.024;2023-12-29T02:02:07;10.70;99.90
27164;DHT22;14685;50.618;7.024;2023-12-29T02:04:35;10.80;99.90
27164;DHT22;14685;50.618;7.024;2023-12-29T02:07:04;10.80;99.90
27164;DHT22;14685;50.618;7.024;2023-12-29T02:09:31;10.80;99.90
27164;DHT22;14685;50.618;7.024;2023-12-29T02:12:00;10.80;99.90
27164;DHT22;14685;50.618;7.024;2023-12-29T02:14:27;10.80;99.90
27164;DHT22;14685;50.618;7.024;2023-12-29T02:17:19;10.80;99.90
27164;DHT22;14685;50.618;7.024;2023-12-29T02:19:48;10.80;99.90
27164;DHT22;14685;50.618;7.024;2023-12-29T02:22:17;10.80;99.90
27164;DHT22;14685;50.618;7.024;2023-12-29T02:24:48;10.90;99.90
27164;DHT22;14685;50.618;7.024;2023-12-29T02:27:34;10.80;99.90
27164;DHT22;14685;50.618;7.024;2023-12-29T02:30:36;10.80;99.90
27164;DHT22;14685;50.618;7.024;2023-12-29T02:33:10;10.80;99.90
27164;DHT22;14685;50.618;7.024;2023-12-29T02:35:43;10.90;99.90
27164;DHT22;14685;50.618;7.024;2023-12-29T02:38:11;10.90;99.90
27164;DHT22;14685;50.618;7.024;2023-12-29T02:40:39;10.90;99.90
27164;DHT22;14685;50.618;7.024;2023-12-29T02:43:07;11.00;99.90
27164;DHT22;14685;50.618;7.024;2023-12-29T02:45:35;10.90;99.90
27164;DHT22;14685;50.618;7.024;2023-12-29T02:48:02;11.00;99.90
27164;DHT22;14685;50.618;7.024;2023-12-29T02:50:29;10.90;99.90
27164;DHT22;14685;50.618;7.024;2023-12-29T02:52:56;10.90;99.90
27164;DHT22;14685;50.618;7.024;2023-12-29T02:55:23;10.90;99.90
27164;DHT22;14685;50.618;7.024;2023-12-29T02:57:50;10.90;99.90
27164;DHT22;14685;50.618;7.024;2023-12-29T03:00:17;10.90;99.90
27164;DHT22;14685;50.618;7.024;2023-12-29T03:02:45;10.90;99.90
27164;DHT22;14685;50.618;7.024;2023-12-29T03:05:13;10.90;99.90
27164;DHT22;14685;50.618;7.024;2023-12-29T03:07:40;10.90;99.90
27164;DHT22;14685;50.618;7.024;2023-12-29T03:10:08;10.90;99.90
27164;DHT22;14685;50.618;7.024;2023-12-29T03:12:35;10.90;99.90
27164;DHT22;14685;50.618;7.024;2023-12-29T03:15:03;10.90;99.90
27164;DHT22;14685;50.618;7.024;2023-12-29T03:17:30;10.90;99.90
27164;DHT22;14685;50.618;7.024;2023-12-29T03:19:57;10.90;99.90
27164;DHT22;14685;50.618;7.024;2023-12-29T03:22:25;10.90;99.90
27164;DHT22;14685;50.618;7.024;2023-12-29T03:24:52;10.90;99.90
27164;DHT22;14685;50.618;7.024;2023-12-29T03:27:19;11.00;99.90
27164;DHT22;14685;50.618;7.024;2023-12-29T03:29:45;10.90;99.90
27164;DHT22;14685;50.618;7.024;2023-12-29T03:32:13;10.90;99.90
27164;DHT22;14685;50.618;7.024;2023-12-29T03:34:41;10.90;99.90
27164;DHT22;14685;50.618;7.024;2023-12-29T03:37:08;10.90;99.90
27164;DHT22;14685;50.618;7.024;2023-12-29T03:39:35;10.90;99.90
27164;DHT22;14685;50.618;7.024;2023-12-29T03:42:03;10.90;99.90
27164;DHT22;14685;50.618;7.024;2023-12-29T03:44:30;10.90;99.90
27164;DHT22;14685;50.618;7.024;2023-12-29T03:46:57;11.00;99.90
27164;DHT22;14685;50.618;7.024;2023-12-29T03:49:24;11.00;99.90
27164;DHT22;14685;50.618;7.024;2023-12-29T03:51:51;11.00;99.90
27164;DHT22;14685;50.618;7.024;2023-12-29T03:54:18;11.00;99.90
27164;DHT22;14685;50.618;7.024;2023-12-29T03:56:46;11.10;99.90
27164;DHT22;14685;50.618;7.024;2023-12-29T03:59:13;11.10;99.90
27164;DHT22;14685;50.618;7.024;2023-12-29T04:01:40;11.10;99.90
27164;DHT22;14685;50.618;7.024;2023-12-29T04:04:07;11.10;99.90
27164;DHT22;14685;50.618;7.024;2023-12-29T04:06:34;11.20;99.90
27164;DHT22;14685;50.618;7.024;2023-12-29T04:09:01;11.10;99.90
27164;DHT22;14685;50.618;7.024;2023-12-29T04:11:28;11.10;99.90
27164;DHT22;14685;50.618;7.024;2023-12-29T04:13:55;11.20;99.90
27164;DHT22;14685;50.618;7.024;2023-12-29T04:16:22;11.10;99.90
27164;DHT22;14685;50.618;7.024;2023-12-29T04:18:49;11.10;99.90
27164;DHT22;14685;50.618;7.024;2023-12-29T04:21:16;11.10;99.90
27164;DHT22;14685;50.618;7.024;2023-12-29T04:23:43;11.10;99.90
27164;DHT22;14685;50.618;7.024;2023-12-29T04:26:10;11.00;99.90
27164;DHT22;14685;50.618;7.024;2023-12-29T04:28:37;11.00;99.90
27164;DHT22;14685;50.618;7.024;2023-12-29T04:31:04;11.00;99.90
27164;DHT22;14685;50.618;7.024;2023-12-29T04:33:31;11.00;99.90
27164;DHT22;14685;50.618;7.024;2023-12-29T04:35:58;10.90;99.90
27164;DHT22;14685;50.618;7.024;2023-12-29T04:38:26;10.90;99.90
27164;DHT22;14685;50.618;7.024;2023-12-29T04:40:52;11.00;99.90
27164;DHT22;14685;50.618;7.024;2023-12-29T04:43:19;10.90;99.90
27164;DHT22;14685;50.618;7.024;2023-12-29T04:45:46;10.80;99.90
27164;DHT22;14685;50.618;7.024;2023-12-29T04:48:13;10.70;99.90
27164;DHT22;14685;50.618;7.024;2023-12-29T04:50:40;10.70;99.90
27164;DHT22;14685;50.618;7.024;2023-12-29T04:53:07;10.70;99.90
27164;DHT22;14685;50.618;7.024;2023-12-29T04:55:34;10.70;99.90
27164;DHT22;14685;50.618;7.024;2023-12-29T04:58:01;10.70;99.90
27164;DHT22;14685;50.618;7.024;2023-12-29T05:00:28;10.60;99.90
27164;DHT22;14685;50.618;7.024;2023-12-29T05:02:55;10.60;99.90
27164;DHT22;14685;50.618;7.024;2023-12-29T05:05:22;10.50;99.90
27164;DHT22;14685;50.618;7.024;2023-12-29T05:07:49;10.50;99.90
27164;DHT22;14685;50.618;7.024;2023-12-29T05:10:16;10.50;99.90
27164;DHT22;14685;50.618;7.024;2023-12-29T05:12:43;10.50;99.90
27164;DHT22;14685;50.618;7.024;2023-12-29T05:15:10;10.50;99.90
27164;DHT22;14685;50.618;7.024;2023-12-29T05:17:37;10.50;99.90
27164;DHT22;14685;50.618;7.024;2023-12-29T05:20:07;10.50;99.90
27164;DHT22;14685;50.618;7.024;2023-12-29T05:22:34;10.60;99.90
27164;DHT22;14685;50.618;7.024;2023-12-29T05:25:01;10.70;99.90
27164;DHT22;14685;50.618;7.024;2023-12-29T05:27:28;10.70;99.90
27164;DHT22;14685;50.618;7.024;2023-12-29T05:29:55;10.80;99.90
27164;DHT22;14685;50.618;7.024;2023-12-29T05:32:22;10.90;99.90
27164;DHT22;14685;50.618;7.024;2023-12-29T05:34:49;10.90;99.90
27164;DHT22;14685;50.618;7.024;2023-12-29T05:37:16;11.00;99.90
27164;DHT22;14685;50.618;7.024;2023-12-29T05:39:44;11.00;99.90
27164;DHT22;14685;50.618;7.024;2023-12-29T05:42:11;11.20;99.90
27164;DHT22;14685;50.618;7.024;2023-12-29T05:44:38;11.10;99.90
27164;DHT22;14685;50.618;7.024;2023-12-29T05:47:05;11.20;99.90
27164;DHT22;14685;50.618;7.024;2023-12-29T05:49:32;11.10;99.90
27164;DHT22;14685;50.618;7.024;2023-12-29T05:52:05;11.10;99.90
27164;DHT22;14685;50.618;7.024;2023-12-29T05:54:33;11.20;99.90
27164;DHT22;14685;50.618;7.024;2023-12-29T05:57:01;11.20;99.90
27164;DHT22;14685;50.618;7.024;2023-12-29T05:59:28;11.20;99.90
27164;DHT22;14685;50.618;7.024;2023-12-29T06:01:55;11.20;99.90
27164;DHT22;14685;50.618;7.024;2023-12-29T06:04:23;11.20;99.90
27164;DHT22;14685;50.618;7.024;2023-12-29T06:06:50;11.20;99.90
27164;DHT22;14685;50.618;7.024;2023-12-29T06:09:18;11.10;99.90
27164;DHT22;14685;50.618;7.024;2023-12-29T06:11:45;11.20;99.90
27164;DHT22;14685;50.618;7.024;2023-12-29T06:14:12;11.20;99.90
27164;DHT22;14685;50.618;7.024;2023-12-29T06:16:39;11.20;99.90
27164;DHT22;14685;50.618;7.024;2023-12-29T06:19:06;11.20;99.90
27164;DHT22;14685;50.618;7.024;2023-12-29T06:21:33;11.20;99.90
27164;DHT22;14685;50.618;7.024;2023-12-29T06:24:00;11.20;99.90
27164;DHT22;14685;50.618;7.024;2023-12-29T06:26:27;11.20;99.90
27164;DHT22;14685;50.618;7.024;2023-12-29T06:28:53;11.10;99.90
27164;DHT22;14685;50.618;7.024;2023-12-29T06:31:20;11.10;99.90
27164;DHT22;14685;50.618;7.024;2023-12-29T06:33:47;11.10;99.90
27164;DHT22;14685;50.618;7.024;2023-12-29T06:36:15;11.20;99.90
27164;DHT22;14685;50.618;7.024;2023-12-29T06:38:42;11.10;99.90
27164;DHT22;14685;50.618;7.024;2023-12-29T06:41:12;11.20;99.90
27164;DHT22;14685;50.618;7.024;2023-12-29T06:43:40;11.10;99.90
27164;DHT22;14685;50.618;7.024;2023-12-29T06:46:07;11.10;99.90
27164;DHT22;14685;50.618;7.024;2023-12-29T06:48:36;11.00;99.90
27164;DHT22;14685;50.618;7.024;2023-12-29T06:51:03;11.00;99.90
27164;DHT22;14685;50.618;7.024;2023-12-29T06:53:30;11.00;99.90
27164;DHT22;14685;50.618;7.024;2023-12-29T06:55:57;11.00;99.90
27164;DHT22;14685;50.618;7.024;2023-12-29T06:58:24;11.00;99.90
27164;DHT22;14685;50.618;7.024;2023-12-29T07:00:51;10.90;99.90
27164;DHT22;14685;50.618;7.024;2023-12-29T07:03:18;10.90;99.90
27164;DHT22;14685;50.618;7.024;2023-12-29T07:05:45;10.90;99.90
27164;DHT22;14685;50.618;7.024;2023-12-29T07:08:13;11.00;99.90
27164;DHT22;14685;50.618;7.024;2023-12-29T07:10:40;11.00;99.90
27164;DHT22;14685;50.618;7.024;2023-12-29T07:13:08;11.00;99.90
27164;DHT22;14685;50.618;7.024;2023-12-29T07:15:35;11.00;99.90
27164;DHT22;14685;50.618;7.024;2023-12-29T07:18:02;11.10;99.90
27164;DHT22;14685;50.618;7.024;2023-12-29T07:20:32;11.10;99.90
27164;DHT22;14685;50.618;7.024;2023-12-29T07:23:00;11.20;99.90
27164;DHT22;14685;50.618;7.024;2023-12-29T07:25:29;11.30;99.90
27164;DHT22;14685;50.618;7.024;2023-12-29T07:27:57;11.10;99.90
27164;DHT22;14685;50.618;7.024;2023-12-29T07:30:24;11.10;99.90
27164;DHT22;14685;50.618;7.024;2023-12-29T07:32:52;11.20;99.90
27164;DHT22;14685;50.618;7.024;2023-12-29T07:35:20;11.10;99.90
27164;DHT22;14685;50.618;7.024;2023-12-29T07:37:49;11.10;99.90
27164;DHT22;14685;50.618;7.024;2023-12-29T07:40:17;11.10;99.90
27164;DHT22;14685;50.618;7.024;2023-12-29T07:42:45;11.10;99.90
27164;DHT22;14685;50.618;7.024;2023-12-29T07:45:15;11.10;99.90
27164;DHT22;14685;50.618;7.024;2023-12-29T07:47:45;11.10;99.90
27164;DHT22;14685;50.618;7.024;2023-12-29T07:50:12;11.10;99.90
27164;DHT22;14685;50.618;7.024;2023-12-29T07:52:39;11.10;99.90
27164;DHT22;14685;50.618;7.024;2023-12-29T07:55:06;11.00;99.90
27164;DHT22;14685;50.618;7.024;2023-12-29T07:57:33;11.00;99.90
27164;DHT22;14685;50.618;7.024;2023-12-29T08:00:01;11.00;99.90
27164;DHT22;14685;50.618;7.024;2023-12-29T08:02:28;10.90;99.90
27164;DHT22;14685;50.618;7.024;2023-12-29T08:04:55;11.10;99.90
27164;DHT22;14685;50.618;7.024;2023-12-29T08:07:22;11.10;99.90
27164;DHT22;14685;50.618;7.024;2023-12-29T08:09:49;11.10;99.90
27164;DHT22;14685;50.618;7.024;2023-12-29T08:12:16;11.10;99.90
27164;DHT22;14685;50.618;7.024;2023-12-29T08:14:43;11.10;99.90
27164;DHT22;14685;50.618;7.024;2023-12-29T08:17:10;11.10;99.90
27164;DHT22;14685;50.618;7.024;2023-12-29T08:19:38;11.00;99.90
27164;DHT22;14685;50.618;7.024;2023-12-29T08:22:05;11.10;99.90
27164;DHT22;14685;50.618;7.024;2023-12-29T08:24:32;11.10;99.90
27164;DHT22;14685;50.618;7.024;2023-12-29T08:27:00;11.10;99.90
27164;DHT22;14685;50.618;7.024;2023-12-29T08:29:28;11.10;99.90
27164;DHT22;14685;50.618;7.024;2023-12-29T08:31:55;11.10;99.90
27164;DHT22;14685;50.618;7.024;2023-12-29T08:34:23;11.20;99.90
27164;DHT22;14685;50.618;7.024;2023-12-29T08:36:54;11.10;99.90
27164;DHT22;14685;50.618;7.024;2023-12-29T08:39:21;11.20;99.90
27164;DHT22;14685;50.618;7.024;2023-12-29T08:41:48;11.10;99.90
27164;DHT22;14685;50.618;7.024;2023-12-29T08:44:16;11.10;99.90
27164;DHT22;14685;50.618;7.024;2023-12-29T08:46:44;11.20;99.90
27164;DHT22;14685;50.618;7.024;2023-12-29T08:49:11;11.20;99.90
27164;DHT22;14685;50.618;7.024;2023-12-29T08:51:40;11.20;99.90
27164;DHT22;14685;50.618;7.024;2023-12-29T08:54:06;11.30;99.90
27164;DHT22;14685;50.618;7.024;2023-12-29T08:56:34;11.30;99.90
27164;DHT22;14685;50.618;7.024;2023-12-29T08:59:01;11.40;99.90
27164;DHT22;14685;50.618;7.024;2023-12-29T09:01:30;11.40;99.90
27164;DHT22;14685;50.618;7.024;2023-12-29T09:03:58;11.50;99.90
27164;DHT22;14685;50.618;7.024;2023-12-29T09:06:25;11.50;99.90
27164;DHT22;14685;50.618;7.024;2023-12-29T09:08:52;11.50;99.90
27164;DHT22;14685;50.618;7.024;2023-12-29T09:11:19;11.50;99.90
27164;DHT22;14685;50.618;7.024;2023-12-29T09:13:47;11.50;99.90
27164;DHT22;14685;50.618;7.024;2023-12-29T09:16:15;11.50;99.90
27164;DHT22;14685;50.618;7.024;2023-12-29T09:18:44;11.50;99.90
27164;DHT22;14685;50.618;7.024;2023-12-29T09:21:12;11.50;99.90
27164;DHT22;14685;50.618;7.024;2023-12-29T09:23:41;11.50;99.90
27164;DHT22;14685;50.618;7.024;2023-12-29T09:26:08;11.50;99.90
27164;DHT22;14685;50.618;7.024;2023-12-29T09:28:36;11.50;99.90
27164;DHT22;14685;50.618;7.024;2023-12-29T09:31:04;11.60;99.90
27164;DHT22;14685;50.618;7.024;2023-12-29T09:33:32;11.70;99.90
27164;DHT22;14685;50.618;7.024;2023-12-29T09:36:00;11.80;99.90
27164;DHT22;14685;50.618;7.024;2023-12-29T09:38:27;11.80;99.90
27164;DHT22;14685;50.618;7.024;2023-12-29T09:40:59;11.90;99.90
27164;DHT22;14685;50.618;7.024;2023-12-29T09:43:32;11.90;99.90
27164;DHT22;14685;50.618;7.024;2023-12-29T09:46:00;11.90;99.90
27164;DHT22;14685;50.618;7.024;2023-12-29T09:48:28;11.90;99.90
27164;DHT22;14685;50.618;7.024;2023-12-29T09:50:57;11.90;99.90
27164;DHT22;14685;50.618;7.024;2023-12-29T09:53:24;12.00;99.90
27164;DHT22;14685;50.618;7.024;2023-12-29T09:55:53;12.00;99.90
27164;DHT22;14685;50.618;7.024;2023-12-29T09:58:21;12.10;99.90
27164;DHT22;14685;50.618;7.024;2023-12-29T10:00:49;12.20;99.90
27164;DHT22;14685;50.618;7.024;2023-12-29T10:03:17;12.20;99.90
27164;DHT22;14685;50.618;7.024;2023-12-29T10:05:50;12.20;99.90
27164;DHT22;14685;50.618;7.024;2023-12-29T10:08:18;12.20;99.90
27164;DHT22;14685;50.618;7.024;2023-12-29T10:10:46;12.20;99.90
27164;DHT22;14685;50.618;7.024;2023-12-29T10:13:17;12.20;99.90
27164;DHT22;14685;50.618;7.024;2023-12-29T10:15:56;12.10;99.90
27164;DHT22;14685;50.618;7.024;2023-12-29T10:18:42;12.20;99.90
27164;DHT22;14685;50.618;7.024;2023-12-29T10:23:50;12.30;99.90
27164;DHT22;14685;50.618;7.024;2023-12-29T10:26:19;12.30;99.90
27164;DHT22;14685;50.618;7.024;2023-12-29T10:28:48;12.40;99.90
27164;DHT22;14685;50.618;7.024;2023-12-29T10:31:16;12.40;99.90
27164;DHT22;14685;50.618;7.024;2023-12-29T10:33:43;12.50;99.90
27164;DHT22;14685;50.618;7.024;2023-12-29T10:36:11;12.40;99.90
27164;DHT22;14685;50.618;7.024;2023-12-29T10:38:39;12.40;99.90
27164;DHT22;14685;50.618;7.024;2023-12-29T10:41:19;12.30;99.90
27164;DHT22;14685;50.618;7.024;2023-12-29T10:43:47;12.30;99.90
27164;DHT22;14685;50.618;7.024;2023-12-29T10:46:25;12.30;99.90
27164;DHT22;14685;50.618;7.024;2023-12-29T10:48:52;12.40;99.90
27164;DHT22;14685;50.618;7.024;2023-12-29T10:51:26;12.30;99.90
27164;DHT22;14685;50.618;7.024;2023-12-29T10:53:55;12.30;99.90
27164;DHT22;14685;50.618;7.024;2023-12-29T10:56:24;12.30;99.90
27164;DHT22;14685;50.618;7.024;2023-12-29T10:59:02;12.20;99.90
27164;DHT22;14685;50.618;7.024;2023-12-29T11:01:31;12.20;99.90
27164;DHT22;14685;50.618;7.024;2023-12-29T11:04:03;12.20;99.90
27164;DHT22;14685;50.618;7.024;2023-12-29T11:06:42;12.10;99.90
27164;DHT22;14685;50.618;7.024;2023-12-29T11:09:12;12.20;99.90
27164;DHT22;14685;50.618;7.024;2023-12-29T11:11:41;12.30;99.90
27164;DHT22;14685;50.618;7.024;2023-12-29T11:14:10;12.20;99.90
27164;DHT22;14685;50.618;7.024;2023-12-29T11:16:38;12.30;99.90
27164;DHT22;14685;50.618;7.024;2023-12-29T11:19:07;12.30;99.90
27164;DHT22;14685;50.618;7.024;2023-12-29T11:21:37;12.30;99.90
27164;DHT22;14685;50.618;7.024;2023-12-29T11:24:06;12.40;99.90
27164;DHT22;14685;50.618;7.024;2023-12-29T11:26:35;12.40;99.90
27164;DHT22;14685;50.618;7.024;2023-12-29T11:29:05;12.40;99.90
27164;DHT22;14685;50.618;7.024;2023-12-29T11:31:32;12.50;99.90
27164;DHT22;14685;50.618;7.024;2023-12-29T11:34:10;12.50;99.90
27164;DHT22;14685;50.618;7.024;2023-12-29T11:36:47;12.50;99.90
27164;DHT22;14685;50.618;7.024;2023-12-29T11:39:48;12.60;99.90
27164;DHT22;14685;50.618;7.024;2023-12-29T11:42:26;12.60;99.90
27164;DHT22;14685;50.618;7.024;2023-12-29T11:44:54;12.60;99.90
27164;DHT22;14685;50.618;7.024;2023-12-29T11:47:36;12.60;99.90
27164;DHT22;14685;50.618;7.024;2023-12-29T11:50:07;12.50;99.90
27164;DHT22;14685;50.618;7.024;2023-12-29T11:52:37;12.50;99.90
27164;DHT22;14685;50.618;7.024;2023-12-29T11:55:13;12.60;99.90
27164;DHT22;14685;50.618;7.024;2023-12-29T11:57:42;12.50;99.90
27164;DHT22;14685;50.618;7.024;2023-12-29T12:00:12;12.50;99.90
27164;DHT22;14685;50.618;7.024;2023-12-29T12:02:39;12.50;99.90
27164;DHT22;14685;50.618;7.024;2023-12-29T12:05:11;12.50;99.90
27164;DHT22;14685;50.618;7.024;2023-12-29T12:12:56;12.50;99.90
27164;DHT22;14685;50.618;7.024;2023-12-29T12:18:03;12.50;99.90
27164;DHT22;14685;50.618;7.024;2023-12-29T12:20:33;12.40;99.90
27164;DHT22;14685;50.618;7.024;2023-12-29T12:23:04;12.40;99.90
27164;DHT22;14685;50.618;7.024;2023-12-29T12:25:35;12.40;99.90
27164;DHT22;14685;50.618;7.024;2023-12-29T12:28:06;12.40;99.90
27164;DHT22;14685;50.618;7.024;2023-12-29T12:30:35;12.40;99.90
27164;DHT22;14685;50.618;7.024;2023-12-29T12:33:04;12.50;99.90
27164;DHT22;14685;50.618;7.024;2023-12-29T12:35:32;12.50;99.90
27164;DHT22;14685;50.618;7.024;2023-12-29T12:38:17;12.50;99.90
27164;DHT22;14685;50.618;7.024;2023-12-29T12:40:49;12.50;99.90
27164;DHT22;14685;50.618;7.024;2023-12-29T12:43:16;12.40;99.90
27164;DHT22;14685;50.618;7.024;2023-12-29T12:45:51;12.50;99.90
27164;DHT22;14685;50.618;7.024;2023-12-29T12:48:23;12.40;99.90
27164;DHT22;14685;50.618;7.024;2023-12-29T12:50:51;12.40;99.90
27164;DHT22;14685;50.618;7.024;2023-12-29T12:53:18;12.40;99.90
27164;DHT22;14685;50.618;7.024;2023-12-29T12:55:50;12.40;99.90
27164;DHT22;14685;50.618;7.024;2023-12-29T12:58:20;12.30;99.90
27164;DHT22;14685;50.618;7.024;2023-12-29T13:00:48;12.30;99.90
27164;DHT22;14685;50.618;7.024;2023-12-29T13:03:21;12.40;99.90
27164;DHT22;14685;50.618;7.024;2023-12-29T13:05:48;12.40;99.90
27164;DHT22;14685;50.618;7.024;2023-12-29T13:08:18;12.30;99.90
27164;DHT22;14685;50.618;7.024;2023-12-29T13:11:00;12.30;99.90
27164;DHT22;14685;50.618;7.024;2023-12-29T13:13:40;12.30;99.90
27164;DHT22;14685;50.618;7.024;2023-12-29T13:16:08;12.40;99.90
27164;DHT22;14685;50.618;7.024;2023-12-29T13:18:35;12.30;99.90
27164;DHT22;14685;50.618;7.024;2023-12-29T13:21:02;12.30;99.90
27164;DHT22;14685;50.618;7.024;2023-12-29T13:23:31;12.30;99.90
27164;DHT22;14685;50.618;7.024;2023-12-29T13:26:01;12.40;99.90
27164;DHT22;14685;50.618;7.024;2023-12-29T13:28:29;12.30;99.90
27164;DHT22;14685;50.618;7.024;2023-12-29T13:31:00;12.30;99.90
27164;DHT22;14685;50.618;7.024;2023-12-29T13:33:35;12.30;99.90
27164;DHT22;14685;50.618;7.024;2023-12-29T13:38:50;12.30;99.90
27164;DHT22;14685;50.618;7.024;2023-12-29T13:41:19;12.30;99.90
27164;DHT22;14685;50.618;7.024;2023-12-29T13:43:49;12.30;99.90
27164;DHT22;14685;50.618;7.024;2023-12-29T13:46:18;12.20;99.90
27164;DHT22;14685;50.618;7.024;2023-12-29T13:48:47;12.20;99.90
27164;DHT22;14685;50.618;7.024;2023-12-29T13:51:25;12.20;99.90
27164;DHT22;14685;50.618;7.024;2023-12-29T13:53:59;12.20;99.90
27164;DHT22;14685;50.618;7.024;2023-12-29T13:56:27;12.20;99.90
27164;DHT22;14685;50.618;7.024;2023-12-29T13:58:54;12.20;99.90
27164;DHT22;14685;50.618;7.024;2023-12-29T14:01:22;12.30;99.90
27164;DHT22;14685;50.618;7.024;2023-12-29T14:03:59;12.20;99.90
27164;DHT22;14685;50.618;7.024;2023-12-29T14:06:29;12.30;99.90
27164;DHT22;14685;50.618;7.024;2023-12-29T14:08:59;12.30;99.90
27164;DHT22;14685;50.618;7.024;2023-12-29T14:11:26;12.30;99.90
27164;DHT22;14685;50.618;7.024;2023-12-29T14:13:53;12.30;99.90
27164;DHT22;14685;50.618;7.024;2023-12-29T14:16:22;12.30;99.90
27164;DHT22;14685;50.618;7.024;2023-12-29T14:18:54;12.20;99.90
27164;DHT22;14685;50.618;7.024;2023-12-29T14:24:01;12.20;99.90
27164;DHT22;14685;50.618;7.024;2023-12-29T14:26:28;12.20;99.90
27164;DHT22;14685;50.618;7.024;2023-12-29T14:29:23;12.10;99.90
27164;DHT22;14685;50.618;7.024;2023-12-29T14:31:51;12.10;99.90
27164;DHT22;14685;50.618;7.024;2023-12-29T14:34:19;12.20;99.90
27164;DHT22;14685;50.618;7.024;2023-12-29T14:36:46;12.10;99.90
27164;DHT22;14685;50.618;7.024;2023-12-29T14:39:13;12.10;99.90
27164;DHT22;14685;50.618;7.024;2023-12-29T14:41:42;12.10;99.90
27164;DHT22;14685;50.618;7.024;2023-12-29T14:44:09;12.10;99.90
27164;DHT22;14685;50.618;7.024;2023-12-29T14:46:36;12.10;99.90
27164;DHT22;14685;50.618;7.024;2023-12-29T14:49:05;12.00;99.90
27164;DHT22;14685;50.618;7.024;2023-12-29T14:51:33;12.00;99.90
27164;DHT22;14685;50.618;7.024;2023-12-29T14:54:01;12.00;99.90
27164;DHT22;14685;50.618;7.024;2023-12-29T14:56:30;12.00;99.90
27164;DHT22;14685;50.618;7.024;2023-12-29T14:58:57;11.90;99.90
27164;DHT22;14685;50.618;7.024;2023-12-29T15:01:24;11.90;99.90
27164;DHT22;14685;50.618;7.024;2023-12-29T15:03:54;12.00;99.90
27164;DHT22;14685;50.618;7.024;2023-12-29T15:06:21;11.90;99.90
27164;DHT22;14685;50.618;7.024;2023-12-29T15:08:48;11.90;99.90
27164;DHT22;14685;50.618;7.024;2023-12-29T15:11:16;11.90;99.90
27164;DHT22;14685;50.618;7.024;2023-12-29T15:13:44;11.80;99.90
27164;DHT22;14685;50.618;7.024;2023-12-29T15:16:11;11.80;99.90
27164;DHT22;14685;50.618;7.024;2023-12-29T15:18:38;11.80;99.90
27164;DHT22;14685;50.618;7.024;2023-12-29T15:21:05;11.70;99.90
27164;DHT22;14685;50.618;7.024;2023-12-29T15:23:32;11.70;99.90
27164;DHT22;14685;50.618;7.024;2023-12-29T15:25:59;11.70;99.90
27164;DHT22;14685;50.618;7.024;2023-12-29T15:28:26;11.70;99.90
27164;DHT22;14685;50.618;7.024;2023-12-29T15:30:54;11.70;99.90
27164;DHT22;14685;50.618;7.024;2023-12-29T15:33:21;11.60;99.90
27164;DHT22;14685;50.618;7.024;2023-12-29T15:35:48;11.60;99.90
27164;DHT22;14685;50.618;7.024;2023-12-29T15:38:16;11.60;99.90
27164;DHT22;14685;50.618;7.024;2023-12-29T15:40:43;11.60;99.90
27164;DHT22;14685;50.618;7.024;2023-12-29T15:43:10;11.60;99.90
27164;DHT22;14685;50.618;7.024;2023-12-29T15:45:41;11.60;99.90
27164;DHT22;14685;50.618;7.024;2023-12-29T15:48:08;11.60;99.90
27164;DHT22;14685;50.618;7.024;2023-12-29T15:50:35;11.40;99.90
27164;DHT22;14685;50.618;7.024;2023-12-29T15:53:02;11.50;99.90
27164;DHT22;14685;50.618;7.024;2023-12-29T15:55:29;11.50;99.90